sensor_id;sensor_type;location;lat;lon;timestamp;temperature;humidity
78461;SHT31;67755;51.986;5.696;2023-06-10T00:01:56;24.8;44.4
78461;SHT31;67755;51.986;5.696;2023-06-10T00:04:27;24.7;45.7
78461;SHT31;67755;51.986;5.696;2023-06-10T00:06:56;24.7;45.2
78461;SHT31;67755;51.986;5.696;2023-06-10T00:09:26;24.7;46.2
78461;SHT31;67755;51.986;5.696;2023-06-10T00:11:56;24.6;45.2
78461;SHT31;67755;51.986;5.696;2023-06-10T00:14:28;24.6;45.2
78461;SHT31;67755;51.986;5.696;2023-06-10T00:16:57;24.6;45.8
78461;SHT31;67755;51.986;5.696;2023-06-10T00:19:27;24.5;44.8
78461;SHT31;67755;51.986;5.696;2023-06-10T00:21:57;24.5;44.6
78461;SHT31;67755;51.986;5.696;2023-06-10T00:24:26;24.5;45.0
78461;SHT31;67755;51.986;5.696;2023-06-10T00:26:58;24.5;44.4
78461;SHT31;67755;51.986;5.696;2023-06-10T00:29:28;24.4;45.1
78461;SHT31;67755;51.986;5.696;2023-06-10T00:31:59;24.4;45.1
78461;SHT31;67755;51.986;5.696;2023-06-10T00:34:29;24.4;44.9
78461;SHT31;67755;51.986;5.696;2023-06-10T00:36:59;24.4;44.2
78461;SHT31;67755;51.986;5.696;2023-06-10T00:39:29;24.3;45.7
78461;SHT31;67755;51.986;5.696;2023-06-10T00:41:58;24.3;43.7
78461;SHT31;67755;51.986;5.696;2023-06-10T00:44:28;24.3;44.9
78461;SHT31;67755;51.986;5.696;2023-06-10T00:46:59;24.3;44.7
78461;SHT31;67755;51.986;5.696;2023-06-10T00:49:30;24.3;45.6
78461;SHT31;67755;51.986;5.696;2023-06-10T00:51:59;24.2;44.0
78461;SHT31;67755;51.986;5.696;2023-06-10T00:54:31;24.2;44.5
78461;SHT31;67755;51.986;5.696;2023-06-10T00:57:02;24.2;44.1
78461;SHT31;67755;51.986;5.696;2023-06-10T00:59:31;24.2;44.4
78461;SHT31;67755;51.986;5.696;2023-06-10T01:02:01;24.1;43.2
78461;SHT31;67755;51.986;5.696;2023-06-10T01:04:31;24.1;44.0
78461;SHT31;67755;51.986;5.696;2023-06-10T01:07:10;24.1;43.2
78461;SHT31;67755;51.986;5.696;2023-06-10T01:09:53;24.1;44.4
78461;SHT31;67755;51.986;5.696;2023-06-10T01:12:30;24.0;44.4
78461;SHT31;67755;51.986;5.696;2023-06-10T01:15:01;24.0;43.5
78461;SHT31;67755;51.986;5.696;2023-06-10T01:17:31;24.0;44.3
78461;SHT31;67755;51.986;5.696;2023-06-10T01:20:01;24.0;44.7
78461;SHT31;67755;51.986;5.696;2023-06-10T01:22:31;24.0;44.6
78461;SHT31;67755;51.986;5.696;2023-06-10T01:25:04;23.9;44.0
78461;SHT31;67755;51.986;5.696;2023-06-10T01:27:38;23.9;44.6
78461;SHT31;67755;51.986;5.696;2023-06-10T01:30:15;23.9;44.5
78461;SHT31;67755;51.986;5.696;2023-06-10T01:32:50;23.9;45.0
78461;SHT31;67755;51.986;5.696;2023-06-10T01:35:24;23.8;44.0
78461;SHT31;67755;51.986;5.696;2023-06-10T01:37:58;23.8;42.6
78461;SHT31;67755;51.986;5.696;2023-06-10T01:40:31;23.8;44.1
78461;SHT31;67755;51.986;5.696;2023-06-10T01:43:02;23.8;43.3
78461;SHT31;67755;51.986;5.696;2023-06-10T01:45:32;23.7;43.9
78461;SHT31;67755;51.986;5.696;2023-06-10T01:48:01;23.7;43.4
78461;SHT31;67755;51.986;5.696;2023-06-10T01:50:31;23.7;43.5
78461;SHT31;67755;51.986;5.696;2023-06-10T01:53:00;23.7;44.6
78461;SHT31;67755;51.986;5.696;2023-06-10T01:55:31;23.7;43.2
78461;SHT31;67755;51.986;5.696;2023-06-10T01:58:01;23.6;43.9
78461;SHT31;67755;51.986;5.696;2023-06-10T02:00:31;23.6;42.9
78461;SHT31;67755;51.986;5.696;2023-06-10T02:03:00;23.6;43.4
78461;SHT31;67755;51.986;5.696;2023-06-10T02:05:30;23.6;43.1
78461;SHT31;67755;51.986;5.696;2023-06-10T02:08:01;23.5;42.8
78461;SHT31;67755;51.986;5.696;2023-06-10T02:10:31;23.5;43.4
78461;SHT31;67755;51.986;5.696;2023-06-10T02:13:01;23.5;44.1
78461;SHT31;67755;51.986;5.696;2023-06-10T02:15:30;23.5;44.4
78461;SHT31;67755;51.986;5.696;2023-06-10T02:18:00;23.5;43.9
78461;SHT31;67755;51.986;5.696;2023-06-10T02:20:30;23.4;43.7
78461;SHT31;67755;51.986;5.696;2023-06-10T02:22:59;23.4;42.2
78461;SHT31;67755;51.986;5.696;2023-06-10T02:25:29;23.4;43.6
78461;SHT31;67755;51.986;5.696;2023-06-10T02:28:00;23.4;43.8
78461;SHT31;67755;51.986;5.696;2023-06-10T02:30:31;23.3;45.1
78461;SHT31;67755;51.986;5.696;2023-06-10T02:33:00;23.3;43.9
78461;SHT31;67755;51.986;5.696;2023-06-10T02:35:30;23.3;43.8
78461;SHT31;67755;51.986;5.696;2023-06-10T02:37:59;23.3;45.0
78461;SHT31;67755;51.986;5.696;2023-06-10T02:40:30;23.3;44.2
78461;SHT31;67755;51.986;5.696;2023-06-10T02:43:01;23.3;43.9
78461;SHT31;67755;51.986;5.696;2023-06-10T02:45:35;23.2;44.4
78461;SHT31;67755;51.986;5.696;2023-06-10T02:48:05;23.2;44.1
78461;SHT31;67755;51.986;5.696;2023-06-10T02:50:35;23.2;43.4
78461;SHT31;67755;51.986;5.696;2023-06-10T02:53:06;23.2;43.7
78461;SHT31;67755;51.986;5.696;2023-06-10T02:55:35;23.2;44.5
78461;SHT31;67755;51.986;5.696;2023-06-10T02:58:05;23.1;44.7
78461;SHT31;67755;51.986;5.696;2023-06-10T03:00:35;23.1;45.6
78461;SHT31;67755;51.986;5.696;2023-06-10T03:03:08;23.1;44.0
78461;SHT31;67755;51.986;5.696;2023-06-10T03:05:38;23.1;45.2
78461;SHT31;67755;51.986;5.696;2023-06-10T03:08:07;23.1;45.0
78461;SHT31;67755;51.986;5.696;2023-06-10T03:10:37;23.1;45.2
78461;SHT31;67755;51.986;5.696;2023-06-10T03:13:06;23.0;44.6
78461;SHT31;67755;51.986;5.696;2023-06-10T03:15:37;23.0;46.1
78461;SHT31;67755;51.986;5.696;2023-06-10T03:18:08;23.0;45.3
78461;SHT31;67755;51.986;5.696;2023-06-10T03:20:37;23.0;45.7
78461;SHT31;67755;51.986;5.696;2023-06-10T03:23:08;23.0;45.6
78461;SHT31;67755;51.986;5.696;2023-06-10T03:25:38;23.0;45.5
78461;SHT31;67755;51.986;5.696;2023-06-10T03:28:07;22.9;45.4
78461;SHT31;67755;51.986;5.696;2023-06-10T03:30:37;22.9;45.5
78461;SHT31;67755;51.986;5.696;2023-06-10T03:33:06;22.9;45.9
78461;SHT31;67755;51.986;5.696;2023-06-10T03:35:36;22.9;45.7
78461;SHT31;67755;51.986;5.696;2023-06-10T03:38:06;22.9;45.8
78461;SHT31;67755;51.986;5.696;2023-06-10T03:40:35;22.9;46.0
78461;SHT31;67755;51.986;5.696;2023-06-10T03:43:05;22.8;45.7
78461;SHT31;67755;51.986;5.696;2023-06-10T03:45:34;22.8;45.8
78461;SHT31;67755;51.986;5.696;2023-06-10T03:48:04;22.8;46.1
78461;SHT31;67755;51.986;5.696;2023-06-10T03:50:35;22.8;46.6
78461;SHT31;67755;51.986;5.696;2023-06-10T03:53:05;22.8;46.6
78461;SHT31;67755;51.986;5.696;2023-06-10T03:55:35;22.7;46.8
78461;SHT31;67755;51.986;5.696;2023-06-10T03:58:04;22.7;46.9
78461;SHT31;67755;51.986;5.696;2023-06-10T04:00:34;22.7;46.4
78461;SHT31;67755;51.986;5.696;2023-06-10T04:03:09;22.7;46.1
78461;SHT31;67755;51.986;5.696;2023-06-10T04:05:41;22.7;46.8
78461;SHT31;67755;51.986;5.696;2023-06-10T04:08:11;22.6;47.5
78461;SHT31;67755;51.986;5.696;2023-06-10T04:10:40;22.6;47.5
78461;SHT31;67755;51.986;5.696;2023-06-10T04:13:10;22.6;47.4
78461;SHT31;67755;51.986;5.696;2023-06-10T04:15:41;22.6;47.5
78461;SHT31;67755;51.986;5.696;2023-06-10T04:18:11;22.6;47.9
78461;SHT31;67755;51.986;5.696;2023-06-10T04:20:41;22.5;47.7
78461;SHT31;67755;51.986;5.696;2023-06-10T04:23:11;22.5;48.3
78461;SHT31;67755;51.986;5.696;2023-06-10T04:25:41;22.5;48.7
78461;SHT31;67755;51.986;5.696;2023-06-10T04:28:10;22.5;47.8
78461;SHT31;67755;51.986;5.696;2023-06-10T04:30:40;22.5;48.1
78461;SHT31;67755;51.986;5.696;2023-06-10T04:33:09;22.5;48.0
78461;SHT31;67755;51.986;5.696;2023-06-10T04:35:39;22.5;48.5
78461;SHT31;67755;51.986;5.696;2023-06-10T04:38:09;22.5;48.3
78461;SHT31;67755;51.986;5.696;2023-06-10T04:40:40;22.4;48.8
78461;SHT31;67755;51.986;5.696;2023-06-10T04:43:11;22.4;49.1
78461;SHT31;67755;51.986;5.696;2023-06-10T04:45:41;22.4;48.7
78461;SHT31;67755;51.986;5.696;2023-06-10T04:48:12;22.4;48.4
78461;SHT31;67755;51.986;5.696;2023-06-10T04:50:41;22.4;48.9
78461;SHT31;67755;51.986;5.696;2023-06-10T04:53:11;22.4;48.0
78461;SHT31;67755;51.986;5.696;2023-06-10T04:55:42;22.4;48.6
78461;SHT31;67755;51.986;5.696;2023-06-10T04:58:13;22.4;47.9
78461;SHT31;67755;51.986;5.696;2023-06-10T05:00:43;22.4;48.5
78461;SHT31;67755;51.986;5.696;2023-06-10T05:03:12;22.4;49.4
78461;SHT31;67755;51.986;5.696;2023-06-10T05:05:42;22.4;48.3
78461;SHT31;67755;51.986;5.696;2023-06-10T05:08:12;22.4;48.5
78461;SHT31;67755;51.986;5.696;2023-06-10T05:10:41;22.4;49.5
78461;SHT31;67755;51.986;5.696;2023-06-10T05:13:11;22.4;50.2
78461;SHT31;67755;51.986;5.696;2023-06-10T05:15:40;22.4;50.0
78461;SHT31;67755;51.986;5.696;2023-06-10T05:18:12;22.5;49.8
78461;SHT31;67755;51.986;5.696;2023-06-10T05:20:42;22.5;49.5
78461;SHT31;67755;51.986;5.696;2023-06-10T05:23:11;22.5;49.7
78461;SHT31;67755;51.986;5.696;2023-06-10T05:25:41;22.5;50.2
78461;SHT31;67755;51.986;5.696;2023-06-10T05:28:11;22.5;49.9
78461;SHT31;67755;51.986;5.696;2023-06-10T05:30:40;22.5;50.0
78461;SHT31;67755;51.986;5.696;2023-06-10T05:33:10;22.5;50.1
78461;SHT31;67755;51.986;5.696;2023-06-10T05:35:39;22.5;50.1
78461;SHT31;67755;51.986;5.696;2023-06-10T05:38:09;22.6;49.8
78461;SHT31;67755;51.986;5.696;2023-06-10T05:40:39;22.6;50.2
78461;SHT31;67755;51.986;5.696;2023-06-10T05:43:08;22.6;49.9
78461;SHT31;67755;51.986;5.696;2023-06-10T05:45:39;22.6;49.1
78461;SHT31;67755;51.986;5.696;2023-06-10T05:48:08;22.6;49.7
78461;SHT31;67755;51.986;5.696;2023-06-10T05:50:39;22.7;49.2
78461;SHT31;67755;51.986;5.696;2023-06-10T05:53:10;22.7;50.0
78461;SHT31;67755;51.986;5.696;2023-06-10T05:55:42;22.7;49.9
78461;SHT31;67755;51.986;5.696;2023-06-10T05:58:13;22.7;50.9
78461;SHT31;67755;51.986;5.696;2023-06-10T06:00:43;22.7;50.5
78461;SHT31;67755;51.986;5.696;2023-06-10T06:03:13;22.8;50.3
78461;SHT31;67755;51.986;5.696;2023-06-10T06:05:42;22.8;50.3
78461;SHT31;67755;51.986;5.696;2023-06-10T06:08:13;22.8;49.3
78461;SHT31;67755;51.986;5.696;2023-06-10T06:10:46;22.8;50.7
78461;SHT31;67755;51.986;5.696;2023-06-10T06:13:16;22.8;51.0
78461;SHT31;67755;51.986;5.696;2023-06-10T06:15:45;22.9;49.8
78461;SHT31;67755;51.986;5.696;2023-06-10T06:18:15;22.9;51.2
78461;SHT31;67755;51.986;5.696;2023-06-10T06:20:45;22.9;51.5
78461;SHT31;67755;51.986;5.696;2023-06-10T06:23:15;23.0;49.0
78461;SHT31;67755;51.986;5.696;2023-06-10T06:25:44;23.0;50.6
78461;SHT31;67755;51.986;5.696;2023-06-10T06:28:14;23.1;52.6
78461;SHT31;67755;51.986;5.696;2023-06-10T06:30:43;23.1;49.1
78461;SHT31;67755;51.986;5.696;2023-06-10T06:33:13;23.2;50.8
78461;SHT31;67755;51.986;5.696;2023-06-10T06:35:42;23.3;49.8
78461;SHT31;67755;51.986;5.696;2023-06-10T06:38:12;23.3;51.4
78461;SHT31;67755;51.986;5.696;2023-06-10T06:40:42;23.4;51.5
78461;SHT31;67755;51.986;5.696;2023-06-10T06:43:11;23.5;51.9
78461;SHT31;67755;51.986;5.696;2023-06-10T06:45:41;23.6;50.0
78461;SHT31;67755;51.986;5.696;2023-06-10T06:48:10;23.7;50.6
78461;SHT31;67755;51.986;5.696;2023-06-10T06:50:40;23.7;50.2
78461;SHT31;67755;51.986;5.696;2023-06-10T06:53:10;23.8;50.6
78461;SHT31;67755;51.986;5.696;2023-06-10T06:55:39;23.9;51.0
78461;SHT31;67755;51.986;5.696;2023-06-10T06:58:09;24.0;49.2
78461;SHT31;67755;51.986;5.696;2023-06-10T07:00:40;24.1;49.8
78461;SHT31;67755;51.986;5.696;2023-06-10T07:03:10;24.2;50.2
78461;SHT31;67755;51.986;5.696;2023-06-10T07:05:40;24.4;50.7
78461;SHT31;67755;51.986;5.696;2023-06-10T07:08:13;24.5;49.0
78461;SHT31;67755;51.986;5.696;2023-06-10T07:10:43;24.6;48.5
78461;SHT31;67755;51.986;5.696;2023-06-10T07:13:13;24.7;46.6
78461;SHT31;67755;51.986;5.696;2023-06-10T07:15:42;24.7;48.8
78461;SHT31;67755;51.986;5.696;2023-06-10T07:18:12;24.8;46.6
78461;SHT31;67755;51.986;5.696;2023-06-10T07:20:41;24.9;45.6
78461;SHT31;67755;51.986;5.696;2023-06-10T07:23:11;25.0;45.5
78461;SHT31;67755;51.986;5.696;2023-06-10T07:25:41;25.1;47.0
78461;SHT31;67755;51.986;5.696;2023-06-10T07:28:11;25.2;47.3
78461;SHT31;67755;51.986;5.696;2023-06-10T07:30:40;25.3;44.6
78461;SHT31;67755;51.986;5.696;2023-06-10T07:33:10;25.3;46.1
78461;SHT31;67755;51.986;5.696;2023-06-10T07:35:39;25.4;44.2
78461;SHT31;67755;51.986;5.696;2023-06-10T07:38:10;25.5;45.8
78461;SHT31;67755;51.986;5.696;2023-06-10T07:40:40;25.6;44.8
78461;SHT31;67755;51.986;5.696;2023-06-10T07:43:09;25.7;47.9
78461;SHT31;67755;51.986;5.696;2023-06-10T07:45:39;25.8;44.9
78461;SHT31;67755;51.986;5.696;2023-06-10T07:48:09;25.9;43.2
78461;SHT31;67755;51.986;5.696;2023-06-10T07:50:39;26.0;46.4
78461;SHT31;67755;51.986;5.696;2023-06-10T07:53:10;26.1;45.1
78461;SHT31;67755;51.986;5.696;2023-06-10T07:55:40;26.2;45.3
78461;SHT31;67755;51.986;5.696;2023-06-10T07:58:10;26.4;46.0
78461;SHT31;67755;51.986;5.696;2023-06-10T08:00:39;26.5;43.4
78461;SHT31;67755;51.986;5.696;2023-06-10T08:03:09;26.6;45.1
78461;SHT31;67755;51.986;5.696;2023-06-10T08:05:39;26.7;41.0
78461;SHT31;67755;51.986;5.696;2023-06-10T08:08:08;26.8;41.9
78461;SHT31;67755;51.986;5.696;2023-06-10T08:10:38;26.9;43.9
78461;SHT31;67755;51.986;5.696;2023-06-10T08:13:08;27.0;40.8
78461;SHT31;67755;51.986;5.696;2023-06-10T08:15:38;27.2;40.9
78461;SHT31;67755;51.986;5.696;2023-06-10T08:18:07;27.3;41.6
78461;SHT31;67755;51.986;5.696;2023-06-10T08:20:37;27.4;43.6
78461;SHT31;67755;51.986;5.696;2023-06-10T08:23:06;27.5;42.3
78461;SHT31;67755;51.986;5.696;2023-06-10T08:25:36;27.7;42.9
78461;SHT31;67755;51.986;5.696;2023-06-10T08:28:05;27.8;41.2
78461;SHT31;67755;51.986;5.696;2023-06-10T08:30:35;27.9;41.6
78461;SHT31;67755;51.986;5.696;2023-06-10T08:33:04;28.0;41.3
78461;SHT31;67755;51.986;5.696;2023-06-10T08:35:34;28.1;42.3
78461;SHT31;67755;51.986;5.696;2023-06-10T08:38:03;28.3;38.9
78461;SHT31;67755;51.986;5.696;2023-06-10T08:40:34;28.4;40.8
78461;SHT31;67755;51.986;5.696;2023-06-10T08:43:06;28.5;38.5
78461;SHT31;67755;51.986;5.696;2023-06-10T08:45:37;28.6;38.9
78461;SHT31;67755;51.986;5.696;2023-06-10T08:48:12;28.7;37.4
78461;SHT31;67755;51.986;5.696;2023-06-10T08:50:44;28.9;38.1
78461;SHT31;67755;51.986;5.696;2023-06-10T08:53:18;29.0;36.8
78461;SHT31;67755;51.986;5.696;2023-06-10T08:55:51;29.1;38.2
78461;SHT31;67755;51.986;5.696;2023-06-10T08:58:22;29.2;38.9
78461;SHT31;67755;51.986;5.696;2023-06-10T09:00:52;29.4;37.0
78461;SHT31;67755;51.986;5.696;2023-06-10T09:03:23;29.5;35.8
78461;SHT31;67755;51.986;5.696;2023-06-10T09:05:53;29.6;37.1
78461;SHT31;67755;51.986;5.696;2023-06-10T09:08:25;29.7;37.3
78461;SHT31;67755;51.986;5.696;2023-06-10T09:10:54;29.8;36.6
78461;SHT31;67755;51.986;5.696;2023-06-10T09:13:24;29.9;37.7
78461;SHT31;67755;51.986;5.696;2023-06-10T09:15:54;30.0;36.2
78461;SHT31;67755;51.986;5.696;2023-06-10T09:18:28;30.1;34.5
78461;SHT31;67755;51.986;5.696;2023-06-10T09:20:58;30.2;35.6
78461;SHT31;67755;51.986;5.696;2023-06-10T09:23:27;30.3;37.4
78461;SHT31;67755;51.986;5.696;2023-06-10T09:25:58;30.4;37.1
78461;SHT31;67755;51.986;5.696;2023-06-10T09:28:28;30.6;35.3
78461;SHT31;67755;51.986;5.696;2023-06-10T09:31:04;30.6;36.8
78461;SHT31;67755;51.986;5.696;2023-06-10T09:33:37;30.7;35.5
78461;SHT31;67755;51.986;5.696;2023-06-10T09:36:08;30.8;36.9
78461;SHT31;67755;51.986;5.696;2023-06-10T09:38:38;30.9;34.8
78461;SHT31;67755;51.986;5.696;2023-06-10T09:41:08;31.0;36.1
78461;SHT31;67755;51.986;5.696;2023-06-10T09:43:43;31.1;35.2
78461;SHT31;67755;51.986;5.696;2023-06-10T09:46:18;31.2;35.8
78461;SHT31;67755;51.986;5.696;2023-06-10T09:48:48;31.4;35.7
78461;SHT31;67755;51.986;5.696;2023-06-10T09:51:17;31.5;34.1
78461;SHT31;67755;51.986;5.696;2023-06-10T09:53:51;31.6;34.8
78461;SHT31;67755;51.986;5.696;2023-06-10T09:56:21;31.7;33.7
78461;SHT31;67755;51.986;5.696;2023-06-10T09:58:53;31.8;31.6
78461;SHT31;67755;51.986;5.696;2023-06-10T10:01:22;31.9;33.6
78461;SHT31;67755;51.986;5.696;2023-06-10T10:03:59;31.9;31.1
78461;SHT31;67755;51.986;5.696;2023-06-10T10:06:30;32.0;30.9
78461;SHT31;67755;51.986;5.696;2023-06-10T10:09:02;32.1;31.2
78461;SHT31;67755;51.986;5.696;2023-06-10T10:11:33;32.2;30.7
78461;SHT31;67755;51.986;5.696;2023-06-10T10:14:04;32.3;31.9
78461;SHT31;67755;51.986;5.696;2023-06-10T10:16:36;32.4;30.6
78461;SHT31;67755;51.986;5.696;2023-06-10T10:19:13;32.4;30.5
78461;SHT31;67755;51.986;5.696;2023-06-10T10:21:53;32.5;31.5
78461;SHT31;67755;51.986;5.696;2023-06-10T10:24:33;32.6;29.6
78461;SHT31;67755;51.986;5.696;2023-06-10T10:27:10;32.7;28.9
78461;SHT31;67755;51.986;5.696;2023-06-10T10:29:48;32.8;28.6
78461;SHT31;67755;51.986;5.696;2023-06-10T10:32:26;32.9;29.2
78461;SHT31;67755;51.986;5.696;2023-06-10T10:35:06;33.0;29.4
78461;SHT31;67755;51.986;5.696;2023-06-10T10:37:37;33.0;28.9
78461;SHT31;67755;51.986;5.696;2023-06-10T10:40:08;33.1;28.8
78461;SHT31;67755;51.986;5.696;2023-06-10T10:42:42;33.2;27.5
78461;SHT31;67755;51.986;5.696;2023-06-10T10:45:12;33.2;27.0
78461;SHT31;67755;51.986;5.696;2023-06-10T10:47:43;33.3;25.3
78461;SHT31;67755;51.986;5.696;2023-06-10T10:50:18;33.3;25.0
78461;SHT31;67755;51.986;5.696;2023-06-10T10:52:53;33.4;27.6
78461;SHT31;67755;51.986;5.696;2023-06-10T10:55:24;33.4;27.1
78461;SHT31;67755;51.986;5.696;2023-06-10T10:57:58;33.5;24.5
78461;SHT31;67755;51.986;5.696;2023-06-10T11:00:30;33.5;27.8
78461;SHT31;67755;51.986;5.696;2023-06-10T11:03:05;33.5;26.1
78461;SHT31;67755;51.986;5.696;2023-06-10T11:05:39;33.6;25.7
78461;SHT31;67755;51.986;5.696;2023-06-10T11:08:11;33.6;25.7
78461;SHT31;67755;51.986;5.696;2023-06-10T11:10:52;33.7;25.4
78461;SHT31;67755;51.986;5.696;2023-06-10T11:13:22;33.7;26.5
78461;SHT31;67755;51.986;5.696;2023-06-10T11:15:52;33.8;26.0
78461;SHT31;67755;51.986;5.696;2023-06-10T11:18:27;33.8;25.3
78461;SHT31;67755;51.986;5.696;2023-06-10T11:20:58;33.9;25.8
78461;SHT31;67755;51.986;5.696;2023-06-10T11:23:33;33.9;26.3
78461;SHT31;67755;51.986;5.696;2023-06-10T11:26:31;34.0;24.8
78461;SHT31;67755;51.986;5.696;2023-06-10T11:29:08;34.0;25.6
78461;SHT31;67755;51.986;5.696;2023-06-10T11:31:48;34.1;24.6
78461;SHT31;67755;51.986;5.696;2023-06-10T11:34:27;34.1;24.2
78461;SHT31;67755;51.986;5.696;2023-06-10T11:36:57;34.2;23.3
78461;SHT31;67755;51.986;5.696;2023-06-10T11:39:29;34.2;24.2
78461;SHT31;67755;51.986;5.696;2023-06-10T11:41:59;34.3;23.4
78461;SHT31;67755;51.986;5.696;2023-06-10T11:44:29;34.3;23.1
78461;SHT31;67755;51.986;5.696;2023-06-10T11:47:00;34.4;23.1
78461;SHT31;67755;51.986;5.696;2023-06-10T11:49:30;34.4;24.5
78461;SHT31;67755;51.986;5.696;2023-06-10T11:51:59;34.4;24.7
78461;SHT31;67755;51.986;5.696;2023-06-10T11:54:29;34.5;23.2
78461;SHT31;67755;51.986;5.696;2023-06-10T11:56:59;34.5;24.2
78461;SHT31;67755;51.986;5.696;2023-06-10T11:59:30;34.5;24.7
78461;SHT31;67755;51.986;5.696;2023-06-10T12:02:02;34.6;24.1
78461;SHT31;67755;51.986;5.696;2023-06-10T12:04:32;34.6;23.1
78461;SHT31;67755;51.986;5.696;2023-06-10T12:07:01;34.6;23.6
78461;SHT31;67755;51.986;5.696;2023-06-10T12:09:31;34.6;24.2
78461;SHT31;67755;51.986;5.696;2023-06-10T12:12:03;34.6;26.0
78461;SHT31;67755;51.986;5.696;2023-06-10T12:14:52;34.6;23.7
78461;SHT31;67755;51.986;5.696;2023-06-10T12:17:38;34.6;24.3
78461;SHT31;67755;51.986;5.696;2023-06-10T12:22:44;34.7;24.7
78461;SHT31;67755;51.986;5.696;2023-06-10T12:25:13;34.7;24.0
78461;SHT31;67755;51.986;5.696;2023-06-10T12:27:52;34.7;23.9
78461;SHT31;67755;51.986;5.696;2023-06-10T12:30:25;34.7;25.4
78461;SHT31;67755;51.986;5.696;2023-06-10T12:32:58;34.7;25.4
78461;SHT31;67755;51.986;5.696;2023-06-10T12:35:28;34.7;23.8
78461;SHT31;67755;51.986;5.696;2023-06-10T12:38:00;34.7;24.7
78461;SHT31;67755;51.986;5.696;2023-06-10T12:40:32;34.7;24.6
78461;SHT31;67755;51.986;5.696;2023-06-10T12:43:03;34.7;24.6
78461;SHT31;67755;51.986;5.696;2023-06-10T12:45:35;34.7;24.8
78461;SHT31;67755;51.986;5.696;2023-06-10T12:48:09;34.8;24.9
78461;SHT31;67755;51.986;5.696;2023-06-10T12:50:41;34.8;24.1
78461;SHT31;67755;51.986;5.696;2023-06-10T12:53:11;34.8;24.0
78461;SHT31;67755;51.986;5.696;2023-06-10T12:55:41;34.8;22.9
78461;SHT31;67755;51.986;5.696;2023-06-10T12:58:13;34.9;23.1
78461;SHT31;67755;51.986;5.696;2023-06-10T13:00:43;34.9;24.3
78461;SHT31;67755;51.986;5.696;2023-06-10T13:03:14;34.9;22.9
78461;SHT31;67755;51.986;5.696;2023-06-10T13:05:44;34.9;22.5
78461;SHT31;67755;51.986;5.696;2023-06-10T13:08:13;34.9;23.1
78461;SHT31;67755;51.986;5.696;2023-06-10T13:10:43;34.9;24.3
78461;SHT31;67755;51.986;5.696;2023-06-10T13:13:12;34.9;23.4
78461;SHT31;67755;51.986;5.696;2023-06-10T13:15:42;35.0;23.0
78461;SHT31;67755;51.986;5.696;2023-06-10T13:18:11;35.0;23.4
78461;SHT31;67755;51.986;5.696;2023-06-10T13:20:41;35.0;22.6
78461;SHT31;67755;51.986;5.696;2023-06-10T13:23:11;35.0;22.7
78461;SHT31;67755;51.986;5.696;2023-06-10T13:25:41;35.0;23.4
78461;SHT31;67755;51.986;5.696;2023-06-10T13:28:12;35.0;24.0
78461;SHT31;67755;51.986;5.696;2023-06-10T13:30:41;35.0;23.9
78461;SHT31;67755;51.986;5.696;2023-06-10T13:33:11;35.0;23.7
78461;SHT31;67755;51.986;5.696;2023-06-10T13:35:40;35.1;23.4
78461;SHT31;67755;51.986;5.696;2023-06-10T13:38:10;35.1;22.9
78461;SHT31;67755;51.986;5.696;2023-06-10T13:40:40;35.1;23.2
78461;SHT31;67755;51.986;5.696;2023-06-10T13:43:10;35.1;22.8
78461;SHT31;67755;51.986;5.696;2023-06-10T13:45:40;35.2;22.5
78461;SHT31;67755;51.986;5.696;2023-06-10T13:48:12;35.2;22.6
78461;SHT31;67755;51.986;5.696;2023-06-10T13:50:41;35.2;23.3
78461;SHT31;67755;51.986;5.696;2023-06-10T13:53:13;35.2;22.9
78461;SHT31;67755;51.986;5.696;2023-06-10T13:55:42;35.2;22.3
78461;SHT31;67755;51.986;5.696;2023-06-10T13:58:12;35.2;21.9
78461;SHT31;67755;51.986;5.696;2023-06-10T14:00:42;35.2;22.6
78461;SHT31;67755;51.986;5.696;2023-06-10T14:03:11;35.2;22.5
78461;SHT31;67755;51.986;5.696;2023-06-10T14:05:41;35.2;22.8
78461;SHT31;67755;51.986;5.696;2023-06-10T14:08:11;35.2;22.8
78461;SHT31;67755;51.986;5.696;2023-06-10T14:10:41;35.2;23.3
78461;SHT31;67755;51.986;5.696;2023-06-10T14:13:11;35.3;22.9
78461;SHT31;67755;51.986;5.696;2023-06-10T14:15:40;35.3;23.1
78461;SHT31;67755;51.986;5.696;2023-06-10T14:18:10;35.3;22.5
78461;SHT31;67755;51.986;5.696;2023-06-10T14:20:41;35.3;23.2
78461;SHT31;67755;51.986;5.696;2023-06-10T14:23:11;35.3;23.0
78461;SHT31;67755;51.986;5.696;2023-06-10T14:25:40;35.3;23.0
78461;SHT31;67755;51.986;5.696;2023-06-10T14:28:10;35.3;21.7
78461;SHT31;67755;51.986;5.696;2023-06-10T14:30:39;35.3;22.3
78461;SHT31;67755;51.986;5.696;2023-06-10T14:33:08;35.3;22.4
78461;SHT31;67755;51.986;5.696;2023-06-10T14:35:38;35.3;21.1
78461;SHT31;67755;51.986;5.696;2023-06-10T14:38:08;35.3;21.8
78461;SHT31;67755;51.986;5.696;2023-06-10T14:40:37;35.3;22.4
78461;SHT31;67755;51.986;5.696;2023-06-10T14:43:07;35.3;21.5
78461;SHT31;67755;51.986;5.696;2023-06-10T14:45:38;35.2;22.7
78461;SHT31;67755;51.986;5.696;2023-06-10T14:48:10;35.2;21.5
78461;SHT31;67755;51.986;5.696;2023-06-10T14:50:40;35.2;22.8
78461;SHT31;67755;51.986;5.696;2023-06-10T14:53:12;35.2;22.1
78461;SHT31;67755;51.986;5.696;2023-06-10T14:55:42;35.2;22.6
78461;SHT31;67755;51.986;5.696;2023-06-10T14:58:12;35.2;22.4
78461;SHT31;67755;51.986;5.696;2023-06-10T15:00:41;35.2;22.2
78461;SHT31;67755;51.986;5.696;2023-06-10T15:03:11;35.2;23.1
78461;SHT31;67755;51.986;5.696;2023-06-10T15:05:43;35.2;23.8
78461;SHT31;67755;51.986;5.696;2023-06-10T15:08:12;35.2;23.0
78461;SHT31;67755;51.986;5.696;2023-06-10T15:10:42;35.2;21.8
78461;SHT31;67755;51.986;5.696;2023-06-10T15:13:12;35.2;22.3
78461;SHT31;67755;51.986;5.696;2023-06-10T15:15:41;35.2;22.6
78461;SHT31;67755;51.986;5.696;2023-06-10T15:18:11;35.1;23.3
78461;SHT31;67755;51.986;5.696;2023-06-10T15:20:40;35.1;23.8
78461;SHT31;67755;51.986;5.696;2023-06-10T15:23:10;35.1;23.3
78461;SHT31;67755;51.986;5.696;2023-06-10T15:25:40;35.1;22.5
78461;SHT31;67755;51.986;5.696;2023-06-10T15:28:09;35.1;21.8
78461;SHT31;67755;51.986;5.696;2023-06-10T15:30:39;35.1;21.9
78461;SHT31;67755;51.986;5.696;2023-06-10T15:33:09;35.0;22.8
78461;SHT31;67755;51.986;5.696;2023-06-10T15:35:39;35.0;23.6
78461;SHT31;67755;51.986;5.696;2023-06-10T15:38:10;34.9;22.8
78461;SHT31;67755;51.986;5.696;2023-06-10T15:40:41;34.9;22.9
78461;SHT31;67755;51.986;5.696;2023-06-10T15:43:11;34.8;23.0
78461;SHT31;67755;51.986;5.696;2023-06-10T15:45:40;34.8;23.8
78461;SHT31;67755;51.986;5.696;2023-06-10T15:48:10;34.7;23.0
78461;SHT31;67755;51.986;5.696;2023-06-10T15:50:39;34.7;23.5
78461;SHT31;67755;51.986;5.696;2023-06-10T15:53:10;34.6;23.5
78461;SHT31;67755;51.986;5.696;2023-06-10T15:55:39;34.6;23.8
78461;SHT31;67755;51.986;5.696;2023-06-10T15:58:09;34.5;23.8
78461;SHT31;67755;51.986;5.696;2023-06-10T16:00:38;34.5;23.4
78461;SHT31;67755;51.986;5.696;2023-06-10T16:03:08;34.4;24.3
78461;SHT31;67755;51.986;5.696;2023-06-10T16:05:37;34.4;23.5
78461;SHT31;67755;51.986;5.696;2023-06-10T16:08:07;34.3;24.1
78461;SHT31;67755;51.986;5.696;2023-06-10T16:10:36;34.3;24.5
78461;SHT31;67755;51.986;5.696;2023-06-10T16:13:06;34.3;23.6
78461;SHT31;67755;51.986;5.696;2023-06-10T16:15:35;34.2;25.0
78461;SHT31;67755;51.986;5.696;2023-06-10T16:18:05;34.2;24.1
78461;SHT31;67755;51.986;5.696;2023-06-10T16:20:35;34.1;25.1
78461;SHT31;67755;51.986;5.696;2023-06-10T16:23:05;34.1;24.9
78461;SHT31;67755;51.986;5.696;2023-06-10T16:25:37;34.0;24.5
78461;SHT31;67755;51.986;5.696;2023-06-10T16:28:07;34.0;24.9